createdAt,value
2018-09-05T00:00:44.314Z,6.60
2018-09-05T00:03:12.360Z,6.42
2018-09-05T00:05:41.736Z,5.40
2018-09-05T00:08:09.785Z,5.95
2018-09-05T00:10:37.845Z,7.42
2018-09-05T00:13:44.465Z,6.90
2018-09-05T00:16:12.602Z,6.60
2018-09-05T00:18:40.638Z,6.67
2018-09-05T00:21:08.699Z,6.10
2018-09-05T00:23:36.758Z,6.08
2018-09-05T00:26:05.250Z,6.55
2018-09-05T00:28:33.288Z,7.00
2018-09-05T00:31:01.441Z,7.70
2018-09-05T00:33:29.506Z,7.10
2018-09-05T00:35:57.720Z,8.30
2018-09-05T00:38:25.768Z,7.65
2018-09-05T00:40:53.833Z,7.50
2018-09-05T00:43:22.193Z,7.60
2018-09-05T00:45:50.254Z,7.78
2018-09-05T00:48:18.468Z,7.40
2018-09-05T00:50:46.529Z,7.03
2018-09-05T00:53:14.589Z,7.30
2018-09-05T00:55:42.713Z,6.80
2018-09-05T00:58:10.772Z,6.45
2018-09-05T01:00:38.821Z,7.70
2018-09-05T01:03:06.876Z,7.08
2018-09-05T01:05:34.931Z,7.40
2018-09-05T01:08:02.995Z,6.95
2018-09-05T01:10:31.080Z,7.45
2018-09-05T01:12:59.129Z,8.33
2018-09-05T01:15:27.617Z,6.55
2018-09-05T01:17:55.672Z,7.20
2018-09-05T01:20:23.795Z,8.15
2018-09-05T01:22:51.853Z,9.08
2018-09-05T01:25:19.900Z,7.87
2018-09-05T01:27:48.088Z,7.95
2018-09-05T01:30:16.121Z,7.33
2018-09-05T01:32:44.192Z,8.90
2018-09-05T01:35:12.246Z,7.78
2018-09-05T01:37:40.356Z,9.10
2018-09-05T01:40:08.507Z,7.85
2018-09-05T01:42:36.549Z,8.10
2018-09-05T01:45:05.226Z,8.70
2018-09-05T01:47:33.294Z,8.20
2018-09-05T01:50:01.404Z,8.00
2018-09-05T01:52:29.457Z,8.35
2018-09-05T01:54:57.528Z,8.85
2018-09-05T01:57:25.564Z,8.55
2018-09-05T01:59:53.713Z,8.40
2018-09-05T02:02:21.813Z,9.10
2018-09-05T02:04:49.858Z,8.58
2018-09-05T02:07:17.921Z,7.95
2018-09-05T02:09:45.969Z,7.37
2018-09-05T02:12:14.130Z,8.10
2018-09-05T02:14:42.206Z,8.33
2018-09-05T02:17:10.529Z,8.28
2018-09-05T02:19:38.594Z,8.43
2018-09-05T02:22:06.652Z,7.65
2018-09-05T02:24:34.750Z,7.75
2018-09-05T02:27:02.837Z,8.80
2018-09-05T02:29:30.868Z,7.58
2018-09-05T02:31:59.318Z,7.78
2018-09-05T02:34:27.736Z,7.30
2018-09-05T02:36:55.896Z,8.05
2018-09-05T02:39:23.928Z,7.70
2018-09-05T02:41:52.035Z,7.80
2018-09-05T02:44:21.498Z,9.58
2018-09-05T02:46:49.893Z,9.28
2018-09-05T02:49:18.292Z,9.00
2018-09-05T02:51:46.905Z,7.50
2018-09-05T02:54:14.997Z,9.13
2018-09-05T02:56:43.130Z,8.80
2018-09-05T02:59:11.214Z,9.03
2018-09-05T03:01:39.240Z,10.25
2018-09-05T03:04:07.353Z,9.08
2018-09-05T03:06:35.402Z,9.28
2018-09-05T03:09:04.784Z,12.82
2018-09-05T03:11:32.872Z,10.48
2018-09-05T03:14:00.916Z,10.75
2018-09-05T03:16:29.428Z,9.83
2018-09-05T03:18:57.477Z,10.18
2018-09-05T03:21:25.577Z,10.18
2018-09-05T03:23:53.640Z,10.30
2018-09-05T03:26:21.768Z,9.48
2018-09-05T03:28:49.821Z,9.18
2018-09-05T03:31:17.994Z,8.23
2018-09-05T03:33:46.052Z,9.60
2018-09-05T03:36:14.101Z,9.75
2018-09-05T03:38:42.157Z,8.85
2018-09-05T03:41:10.422Z,8.65
2018-09-05T03:43:38.475Z,9.40
2018-09-05T03:46:06.567Z,10.10
2018-09-05T03:48:34.657Z,10.03
2018-09-05T03:51:03.142Z,9.85
2018-09-05T03:53:31.185Z,8.35
2018-09-05T03:55:59.229Z,8.30
2018-09-05T03:58:27.301Z,8.95
2018-09-05T04:00:55.771Z,9.30
2018-09-05T04:03:23.828Z,8.70
2018-09-05T04:05:51.944Z,7.78
2018-09-05T04:08:20.004Z,8.98
2018-09-05T04:10:48.057Z,8.53
2018-09-05T04:13:16.116Z,8.18
2018-09-05T04:15:44.159Z,9.28
2018-09-05T04:18:12.389Z,10.10
2018-09-05T04:20:40.439Z,9.15
2018-09-05T04:23:08.502Z,9.25
2018-09-05T04:25:36.552Z,8.98
2018-09-05T04:28:05.024Z,8.28
2018-09-05T04:30:33.073Z,9.13
2018-09-05T04:33:01.157Z,8.45
2018-09-05T04:35:29.273Z,9.13
2018-09-05T04:37:57.372Z,8.83
2018-09-05T04:40:25.404Z,9.00
2018-09-05T04:42:53.460Z,8.00
2018-09-05T04:45:21.544Z,10.35
2018-09-05T04:47:49.602Z,8.10
2018-09-05T04:50:17.693Z,9.23
2018-09-05T04:52:45.751Z,8.65
2018-09-05T04:55:13.780Z,8.63
2018-09-05T04:57:41.825Z,9.18
2018-09-05T05:00:09.929Z,9.35
2018-09-05T05:02:38.014Z,8.85
2018-09-05T05:05:06.060Z,7.92
2018-09-05T05:07:34.115Z,9.58
2018-09-05T05:10:02.180Z,9.38
2018-09-05T05:12:30.260Z,8.45
2018-09-05T05:14:58.349Z,9.63
2018-09-05T05:17:26.401Z,7.95
2018-09-05T05:19:54.469Z,11.33
2018-09-05T05:22:22.899Z,9.93
2018-09-05T05:24:50.944Z,9.33
2018-09-05T05:27:18.994Z,10.15
2018-09-05T05:29:47.111Z,7.83
2018-09-05T05:32:15.161Z,8.88
2018-09-05T05:34:43.244Z,8.65
2018-09-05T05:37:11.293Z,8.95
2018-09-05T05:39:39.386Z,10.32
2018-09-05T05:42:07.417Z,8.88
2018-09-05T05:44:35.537Z,9.85
2018-09-05T05:47:03.693Z,10.25
2018-09-05T05:49:31.736Z,8.95
2018-09-05T05:51:59.792Z,10.13
2018-09-05T05:54:27.853Z,8.53
2018-09-05T05:56:56.009Z,10.50
2018-09-05T05:59:24.063Z,10.10
2018-09-05T06:01:52.194Z,10.48
2018-09-05T06:04:20.255Z,10.13
2018-09-05T06:06:48.424Z,10.55
2018-09-05T06:09:16.480Z,10.70
2018-09-05T06:11:44.590Z,10.90
2018-09-05T06:14:12.675Z,11.73
2018-09-05T06:16:40.709Z,10.30
2018-09-05T06:19:08.785Z,11.38
2018-09-05T06:21:36.856Z,12.65
2018-09-05T06:24:04.994Z,11.68
2018-09-05T06:26:32.981Z,11.35
2018-09-05T06:29:01.036Z,11.18
2018-09-05T06:31:29.101Z,12.85
2018-09-05T06:33:57.152Z,12.20
2018-09-05T06:36:25.571Z,13.05
2018-09-05T06:38:53.725Z,9.75
2018-09-05T06:41:21.745Z,12.15
2018-09-05T06:43:49.805Z,13.22
2018-09-05T06:48:52.300Z,11.22
2018-09-05T06:51:20.393Z,11.40
2018-09-05T06:53:48.429Z,9.83
2018-09-05T06:56:16.505Z,10.68
2018-09-05T06:58:44.559Z,10.43
2018-09-05T07:01:12.630Z,9.95
2018-09-05T07:03:40.847Z,8.90
2018-09-05T07:06:08.743Z,9.53
2018-09-05T07:08:36.799Z,10.75
2018-09-05T07:11:04.957Z,9.58
2018-09-05T07:13:33.017Z,9.50
2018-09-05T07:16:01.090Z,8.83
2018-09-05T07:18:29.139Z,8.70
2018-09-05T07:21:05.683Z,8.80
2018-09-05T07:23:25.269Z,8.78
2018-09-05T07:25:53.708Z,9.20
2018-09-05T07:28:21.941Z,8.67
2018-09-05T07:30:50.170Z,8.27
2018-09-05T07:33:18.199Z,7.67
2018-09-05T07:35:46.358Z,8.30
2018-09-05T07:38:14.491Z,7.57
2018-09-05T07:40:42.545Z,7.67
2018-09-05T07:43:10.596Z,7.70
2018-09-05T07:45:38.670Z,7.63
2018-09-05T07:48:06.932Z,7.20
2018-09-05T07:50:35.040Z,7.70
2018-09-05T07:53:03.045Z,7.43
2018-09-05T07:55:31.100Z,7.70
2018-09-05T07:58:00.098Z,8.03
2018-09-05T08:00:28.148Z,6.83
2018-09-05T08:02:56.198Z,6.87
2018-09-05T08:05:24.265Z,7.77
2018-09-05T08:07:52.436Z,6.97
2018-09-05T08:10:21.077Z,6.00
2018-09-05T08:12:49.117Z,6.97
2018-09-05T08:15:17.168Z,6.77
2018-09-05T08:17:45.230Z,6.80
2018-09-05T08:20:13.276Z,6.17
2018-09-05T08:22:47.989Z,6.40
2018-09-05T08:25:16.414Z,6.23
2018-09-05T08:27:44.549Z,6.87
2018-09-05T08:30:12.757Z,6.40
2018-09-05T08:32:40.766Z,6.10
2018-09-05T08:35:09.432Z,6.10
2018-09-05T08:37:37.944Z,6.40
2018-09-05T08:40:05.900Z,6.10
2018-09-05T08:42:35.424Z,6.10
2018-09-05T08:45:04.121Z,5.27
2018-09-05T08:47:32.168Z,5.70
2018-09-05T08:50:00.974Z,6.40
2018-09-05T08:52:29.265Z,5.37
2018-09-05T08:54:57.910Z,5.67
2018-09-05T08:57:25.964Z,5.50
2018-09-05T08:59:54.686Z,6.07
2018-09-05T09:02:22.774Z,6.00
2018-09-05T09:04:51.367Z,5.53
2018-09-05T09:07:19.360Z,4.90
2018-09-05T09:09:47.400Z,5.33
2018-09-05T09:12:15.461Z,5.90
2018-09-05T09:14:43.529Z,5.23
2018-09-05T09:17:13.575Z,5.40
2018-09-05T09:19:41.624Z,5.40
2018-09-05T09:22:09.680Z,5.50
2018-09-05T09:24:37.737Z,5.63
2018-09-05T09:27:06.112Z,5.30
2018-09-05T09:29:34.686Z,5.90
2018-09-05T09:32:02.743Z,5.10
2018-09-05T09:34:31.230Z,5.27
2018-09-05T09:37:00.624Z,5.30
2018-09-05T09:39:29.295Z,5.30
2018-09-05T09:41:58.136Z,5.50
2018-09-05T09:44:26.205Z,4.60
2018-09-05T09:49:38.604Z,5.10
2018-09-05T09:52:12.105Z,5.50
2018-09-05T09:54:40.164Z,5.23
2018-09-05T09:57:08.224Z,4.87
2018-09-05T09:59:36.448Z,5.10
2018-09-05T10:02:10.097Z,4.80
2018-09-05T10:04:43.688Z,5.20
2018-09-05T10:07:17.485Z,4.70
2018-09-05T10:09:50.975Z,5.80
2018-09-05T10:12:24.521Z,5.23
2018-09-05T10:14:56.839Z,5.20
2018-09-05T10:17:33.554Z,6.00
2018-09-05T10:20:02.124Z,6.30
2018-09-05T10:22:30.570Z,5.53
2018-09-05T10:24:58.683Z,6.00
2018-09-05T10:27:27.559Z,6.10
2018-09-05T10:29:56.144Z,6.07
2018-09-05T10:32:24.753Z,6.40
2018-09-05T10:34:53.449Z,5.23
2018-09-05T10:37:21.545Z,6.13
2018-09-05T10:39:49.725Z,5.30
2018-09-05T10:42:17.836Z,5.27
2018-09-05T10:44:45.980Z,5.23
2018-09-05T10:47:14.042Z,5.47
2018-09-05T10:49:43.020Z,5.90
2018-09-05T10:52:11.149Z,5.20
2018-09-05T10:54:39.273Z,5.33
2018-09-05T10:57:07.977Z,5.77
2018-09-05T10:59:36.057Z,5.20
2018-09-05T11:02:04.213Z,5.50
2018-09-05T11:04:32.269Z,5.73
2018-09-05T11:07:00.315Z,5.43
2018-09-05T11:09:28.367Z,4.80
2018-09-05T11:11:56.449Z,5.07
2018-09-05T11:14:24.506Z,5.27
2018-09-05T11:16:52.725Z,4.97
2018-09-05T11:19:20.789Z,5.07
2018-09-05T11:21:49.193Z,5.50
2018-09-05T11:24:17.287Z,5.40
2018-09-05T11:26:45.466Z,5.00
2018-09-05T11:29:13.526Z,6.20
2018-09-05T11:31:41.641Z,5.30
2018-09-05T11:34:09.688Z,5.93
2018-09-05T11:36:37.998Z,5.87
2018-09-05T11:39:09.871Z,5.30
2018-09-05T11:41:37.985Z,5.83
2018-09-05T11:44:06.805Z,5.27
2018-09-05T11:46:35.015Z,4.73
2018-09-05T11:49:03.147Z,6.00
2018-09-05T11:51:31.233Z,5.67
2018-09-05T11:53:59.290Z,5.93
2018-09-05T11:56:27.352Z,5.97
2018-09-05T11:58:55.400Z,5.37
2018-09-05T12:01:24.520Z,5.80
2018-09-05T12:03:52.783Z,6.10
2018-09-05T12:06:21.013Z,6.57
2018-09-05T12:08:49.489Z,5.63
2018-09-05T12:11:17.629Z,5.53
2018-09-05T12:13:45.736Z,5.30
2018-09-05T12:16:14.066Z,5.87
2018-09-05T12:18:42.212Z,5.60
2018-09-05T12:21:10.436Z,7.20
2018-09-05T12:23:38.505Z,5.93
2018-09-05T12:26:06.566Z,7.07
2018-09-05T12:28:34.874Z,5.97
2018-09-05T12:31:02.924Z,6.57
2018-09-05T12:33:31.149Z,7.10
2018-09-05T12:35:59.218Z,6.07
2018-09-05T12:38:27.317Z,6.70
2018-09-05T12:40:55.323Z,6.40
2018-09-05T12:43:23.590Z,6.33
2018-09-05T12:45:51.637Z,6.07
2018-09-05T12:48:19.743Z,6.30
2018-09-05T12:50:47.768Z,6.80
2018-09-05T12:53:15.833Z,5.90
2018-09-05T12:55:44.264Z,6.47
2018-09-05T12:58:12.337Z,6.20
2018-09-05T13:00:40.388Z,6.27
2018-09-05T13:03:08.437Z,6.03
2018-09-05T13:05:36.561Z,6.03
2018-09-05T13:08:04.532Z,6.00
2018-09-05T13:10:33.029Z,6.63
2018-09-05T13:13:01.072Z,5.97
2018-09-05T13:15:29.133Z,6.50
2018-09-05T13:17:57.202Z,5.57
2018-09-05T13:20:25.413Z,5.93
2018-09-05T13:22:53.516Z,5.50
2018-09-05T13:25:21.537Z,6.27
2018-09-05T13:27:49.616Z,6.70
2018-09-05T13:30:17.667Z,6.17
2018-09-05T13:32:45.712Z,5.93
2018-09-05T13:35:13.769Z,5.70
2018-09-05T13:37:41.846Z,6.00
2018-09-05T13:40:09.986Z,6.27
2018-09-05T13:42:38.028Z,6.27
2018-09-05T13:45:06.145Z,6.50
2018-09-05T13:47:34.182Z,6.27
2018-09-05T13:50:02.490Z,6.17
2018-09-05T13:52:30.532Z,6.00
2018-09-05T13:54:58.624Z,8.03
2018-09-05T13:57:26.664Z,7.00
2018-09-05T13:59:54.720Z,6.70
2018-09-05T14:02:22.770Z,5.50
2018-09-05T14:04:50.820Z,7.00
2018-09-05T14:07:18.970Z,7.20
2018-09-05T14:09:47.363Z,6.60
2018-09-05T14:12:15.854Z,5.47
2018-09-05T14:14:44.052Z,6.67
2018-09-05T14:17:12.441Z,5.60
2018-09-05T14:19:40.491Z,6.03
2018-09-05T14:22:08.545Z,7.07
2018-09-05T14:24:36.610Z,5.90
2018-09-05T14:27:04.652Z,6.73
2018-09-05T14:29:32.721Z,6.87
2018-09-05T14:32:00.772Z,6.57
2018-09-05T14:34:28.924Z,6.83
2018-09-05T14:36:57.011Z,6.40
2018-09-05T14:39:25.058Z,6.30
2018-09-05T14:41:53.109Z,6.07
2018-09-05T14:44:21.181Z,6.53
2018-09-05T14:46:49.252Z,5.80
2018-09-05T14:49:17.293Z,6.33
2018-09-05T14:51:45.341Z,6.67
2018-09-05T14:54:13.506Z,6.17
2018-09-05T14:56:41.584Z,5.67
2018-09-05T14:59:09.620Z,6.03
2018-09-05T15:01:37.705Z,6.37
2018-09-05T15:04:05.769Z,6.10
2018-09-05T15:06:33.930Z,6.87
2018-09-05T15:09:02.318Z,6.80
2018-09-05T15:11:30.360Z,6.00
2018-09-05T15:13:58.411Z,5.90
2018-09-05T15:16:26.485Z,6.60
2018-09-05T15:18:54.528Z,5.93
2018-09-05T15:21:22.580Z,6.60
2018-09-05T15:23:50.636Z,6.23
2018-09-05T15:26:18.696Z,6.20
2018-09-05T15:28:46.796Z,5.77
2018-09-05T15:31:14.813Z,6.40
2018-09-05T15:33:42.869Z,6.77
2018-09-05T15:36:10.937Z,6.53
2018-09-05T15:38:38.985Z,6.13
2018-09-05T15:41:07.081Z,5.97
2018-09-05T15:43:35.133Z,6.10
2018-09-05T15:46:03.192Z,5.57
2018-09-05T15:48:31.384Z,5.93
2018-09-05T15:50:59.436Z,6.40
2018-09-05T15:53:27.512Z,9.87
2018-09-05T15:55:55.558Z,5.60
2018-09-05T15:58:23.602Z,6.80
2018-09-05T16:00:51.653Z,5.67
2018-09-05T16:03:19.716Z,5.50
2018-09-05T16:05:47.768Z,5.70
2018-09-05T16:08:15.836Z,6.17
2018-09-05T16:10:44.536Z,6.00
2018-09-05T16:13:12.565Z,6.23
2018-09-05T16:15:40.833Z,6.33
2018-09-05T16:18:08.691Z,6.57
2018-09-05T16:20:36.741Z,5.93
2018-09-05T16:23:04.797Z,5.77
2018-09-05T16:25:32.914Z,6.87
2018-09-05T16:28:00.964Z,5.67
2018-09-05T16:30:29.024Z,6.97
2018-09-05T16:32:57.089Z,6.47
2018-09-05T16:35:25.191Z,6.57
2018-09-05T16:37:53.234Z,6.90
2018-09-05T16:40:21.293Z,6.90
2018-09-05T16:42:49.336Z,6.50
2018-09-05T16:45:17.652Z,6.17
2018-09-05T16:47:45.708Z,5.50
2018-09-05T16:50:13.781Z,6.95
2018-09-05T16:52:41.831Z,6.45
2018-09-05T16:55:09.888Z,6.37
2018-09-05T16:57:37.957Z,5.90
2018-09-05T17:00:06.063Z,6.27
2018-09-05T17:02:34.115Z,6.15
2018-09-05T17:05:02.181Z,5.92
2018-09-05T17:07:30.247Z,5.85
2018-09-05T17:09:58.341Z,5.72
2018-09-05T17:12:26.405Z,5.10
2018-09-05T17:14:54.457Z,7.70
2018-09-05T17:17:22.520Z,6.33
2018-09-05T17:19:50.574Z,6.83
2018-09-05T17:22:18.712Z,6.05
2018-09-05T17:24:46.701Z,6.85
2018-09-05T17:27:15.180Z,7.87
2018-09-05T17:29:43.236Z,6.50
2018-09-05T17:32:11.297Z,7.47
2018-09-05T17:34:39.355Z,6.12
2018-09-05T17:37:07.524Z,6.20
2018-09-05T17:39:35.706Z,5.97
2018-09-05T17:42:03.775Z,6.72
2018-09-05T17:44:31.820Z,7.20
2018-09-05T17:46:59.880Z,7.00
2018-09-05T17:49:27.929Z,6.50
2018-09-05T17:51:56.013Z,7.10
2018-09-05T17:54:24.032Z,7.08
2018-09-05T17:56:52.093Z,7.62
2018-09-05T17:59:20.140Z,7.40
2018-09-05T18:01:48.201Z,7.37
2018-09-05T18:04:16.256Z,7.22
2018-09-05T18:06:44.317Z,6.40
2018-09-05T18:09:12.613Z,6.55
2018-09-05T18:11:41.759Z,7.03
2018-09-05T18:14:09.904Z,6.47
2018-09-05T18:16:37.961Z,6.85
2018-09-05T18:19:06.001Z,6.83
2018-09-05T18:21:34.062Z,6.22
2018-09-05T18:24:02.109Z,6.45
2018-09-05T18:26:30.165Z,5.45
2018-09-05T18:28:58.216Z,6.37
2018-09-05T18:31:26.290Z,6.90
2018-09-05T18:33:54.355Z,6.53
2018-09-05T18:36:22.411Z,6.55
2018-09-05T18:38:50.458Z,6.25
2018-09-05T18:41:18.522Z,6.03
2018-09-05T18:43:46.613Z,7.75
2018-09-05T18:46:14.692Z,7.10
2018-09-05T18:48:42.742Z,7.53
2018-09-05T18:51:10.788Z,8.55
2018-09-05T18:53:38.836Z,6.17
2018-09-05T18:56:06.908Z,6.53
2018-09-05T18:58:34.998Z,7.78
2018-09-05T19:01:03.060Z,6.92
2018-09-05T19:03:31.191Z,6.28
2018-09-05T19:05:59.224Z,6.58
2018-09-05T19:08:27.386Z,7.08
2018-09-05T19:10:55.308Z,6.12
2018-09-05T19:13:23.360Z,5.55
2018-09-05T19:15:51.421Z,6.55
2018-09-05T19:18:19.482Z,6.30
2018-09-05T19:20:47.528Z,7.12
2018-09-05T19:23:15.602Z,7.15
2018-09-05T19:25:43.640Z,6.25
2018-09-05T19:28:11.700Z,7.17
2018-09-05T19:30:39.772Z,7.40
2018-09-05T19:33:07.825Z,7.58
2018-09-05T19:35:35.938Z,6.92
2018-09-05T19:38:03.976Z,6.55
2018-09-05T19:40:32.024Z,7.53
2018-09-05T19:43:00.076Z,7.40
2018-09-05T19:45:28.136Z,6.40
2018-09-05T19:47:56.184Z,6.30
2018-09-05T19:50:24.289Z,5.80
2018-09-05T19:52:52.292Z,5.70
2018-09-05T19:55:20.337Z,6.25
2018-09-05T19:57:48.401Z,5.55
2018-09-05T20:00:17.036Z,6.85
2018-09-05T20:02:45.138Z,7.53
2018-09-05T20:05:13.623Z,6.35
2018-09-05T20:07:41.705Z,6.85
2018-09-05T20:10:09.761Z,7.72
2018-09-05T20:12:37.820Z,5.95
2018-09-05T20:15:05.906Z,6.45
2018-09-05T20:17:33.962Z,6.90
2018-09-05T20:20:02.006Z,6.17
2018-09-05T20:22:30.109Z,6.65
2018-09-05T20:24:58.145Z,6.65
2018-09-05T20:27:26.244Z,7.65
2018-09-05T20:29:54.518Z,6.70
2018-09-05T20:32:22.654Z,7.97
2018-09-05T20:34:50.698Z,7.30
2018-09-05T20:37:18.753Z,7.08
2018-09-05T20:39:46.796Z,7.67
2018-09-05T20:42:14.878Z,7.97
2018-09-05T20:44:42.919Z,7.08
2018-09-05T20:47:11.059Z,7.67
2018-09-05T20:49:39.108Z,7.00
2018-09-05T20:52:07.245Z,7.97
2018-09-05T20:54:35.260Z,7.87
2018-09-05T20:57:03.313Z,7.12
2018-09-05T20:59:31.383Z,7.20
2018-09-05T21:01:59.585Z,6.80
2018-09-05T21:04:27.736Z,7.25
2018-09-05T21:06:56.073Z,7.70
2018-09-05T21:09:24.129Z,7.28
2018-09-05T21:11:52.209Z,8.98
2018-09-05T21:14:20.287Z,7.60
2018-09-05T21:16:48.325Z,7.58
2018-09-05T21:19:16.392Z,8.03
2018-09-05T21:21:44.456Z,8.50
2018-09-05T21:24:12.536Z,8.30
2018-09-05T21:26:40.564Z,7.28
2018-09-05T21:29:08.620Z,7.53
2018-09-05T21:31:43.345Z,7.35
2018-09-05T21:34:11.384Z,8.40
2018-09-05T21:36:39.424Z,7.78
2018-09-05T21:39:08.466Z,8.53
2018-09-05T21:41:36.479Z,7.85
2018-09-05T21:44:04.571Z,7.15
2018-09-05T21:46:32.745Z,7.50
2018-09-05T21:49:00.797Z,7.75
2018-09-05T21:51:29.156Z,8.00
2018-09-05T21:53:57.209Z,8.08
2018-09-05T21:56:25.257Z,8.38
2018-09-05T21:58:53.308Z,9.18
2018-09-05T22:01:21.385Z,7.80
2018-09-05T22:03:51.229Z,7.37
2018-09-05T22:06:19.281Z,7.75
2018-09-05T22:08:47.344Z,6.65
2018-09-05T22:11:20.703Z,8.60
2018-09-05T22:13:48.951Z,8.53
2018-09-05T22:16:16.958Z,8.28
2018-09-05T22:18:45.043Z,8.40
2018-09-05T22:21:13.127Z,7.83
2018-09-05T22:23:41.212Z,8.40
2018-09-05T22:26:09.249Z,7.83
2018-09-05T22:28:37.301Z,9.80
2018-09-05T22:31:05.369Z,9.03
2018-09-05T22:33:33.421Z,7.62
2018-09-05T22:36:01.537Z,7.55
2018-09-05T22:38:29.561Z,7.12
2018-09-05T22:40:57.612Z,8.05
2018-09-05T22:43:37.789Z,8.65
2018-09-05T22:46:17.316Z,7.83
2018-09-05T22:49:11.628Z,7.37
2018-09-05T22:52:55.603Z,7.50
2018-09-05T22:55:42.190Z,7.62
2018-09-05T22:58:25.511Z,8.28
2018-09-05T23:01:07.064Z,9.48
2018-09-05T23:03:45.406Z,8.08
2018-09-05T23:06:22.694Z,7.70
2018-09-05T23:08:50.730Z,8.45
2018-09-05T23:11:30.273Z,8.40
2018-09-05T23:14:30.687Z,7.45
2018-09-05T23:19:16.556Z,7.33
2018-09-05T23:21:44.600Z,7.80
2018-09-05T23:24:12.771Z,7.95
2018-09-05T23:26:40.813Z,7.55
2018-09-05T23:29:08.871Z,9.15
2018-09-05T23:31:36.938Z,8.15
2018-09-05T23:34:05.023Z,8.33
2018-09-05T23:36:33.092Z,7.90
2018-09-05T23:39:01.117Z,8.60
2018-09-05T23:41:29.263Z,8.15
2018-09-05T23:43:57.289Z,6.83
2018-09-05T23:46:25.353Z,7.25
2018-09-05T23:48:53.415Z,7.83
2018-09-05T23:51:21.500Z,7.55
2018-09-05T23:53:49.586Z,8.38
2018-09-05T23:56:17.670Z,8.00
2018-09-05T23:58:45.702Z,8.05
